Time;durP1;ratioP1;P1;durP2;ratioP2;P2;SDS_P1;SDS_P2;PMS_P1;PMS_P2;Temp;Humidity;BMP_temperature;BMP_pressure;BME280_temperature;BME280_humidity;BME280_pressure;Samples;Min_cycle;Max_cycle;Signal;HPM_P1;HPM_P2
2022/01/01 00:02:01;;;;;;;;;15.00;13.25;;;;;20.87;47.06;102044.97;5056280;28;45475;-58
2022/01/01 00:04:26;;;;;;;;;9.50;9.00;;;;;20.85;46.89;102051.16;5055673;28;46197;-56
2022/01/01 00:06:51;;;;;;;;;14.50;10.75;;;;;20.84;47.05;102048.59;5055668;28;45352;-58
2022/01/01 00:09:17;;;;;;;;;9.50;9.50;;;;;20.84;46.80;102046.81;5038433;28;45433;-56
2022/01/01 00:11:42;;;;;;;;;11.50;11.25;;;;;20.83;46.51;102053.03;5059107;28;45517;-57
2022/01/01 00:14:07;;;;;;;;;11.00;10.50;;;;;20.82;47.00;102063.59;5058993;28;46082;-58
2022/01/01 00:16:33;;;;;;;;;11.75;11.00;;;;;20.77;46.69;102044.50;5059267;28;45217;-58
2022/01/01 00:18:58;;;;;;;;;15.75;12.50;;;;;20.80;46.73;102054.88;5059063;28;45348;-58
2022/01/01 00:21:24;;;;;;;;;13.75;12.25;;;;;20.79;47.10;102058.44;5059161;28;45517;-57
2022/01/01 00:23:50;;;;;;;;;10.50;10.50;;;;;20.77;46.81;102061.13;5058653;28;45277;-58
2022/01/01 00:26:15;;;;;;;;;15.25;13.25;;;;;20.76;46.76;102058.56;5058680;28;45460;-58
2022/01/01 00:28:41;;;;;;;;;12.75;12.50;;;;;20.76;46.87;102040.97;5058882;28;45450;-58
2022/01/01 00:31:07;;;;;;;;;14.75;11.75;;;;;20.75;46.87;102051.59;5040896;28;45482;-57
2022/01/01 00:33:33;;;;;;;;;14.75;11.50;;;;;20.75;46.55;102051.59;5058739;28;46735;-58
2022/01/01 00:35:58;;;;;;;;;12.50;12.50;;;;;20.75;46.94;102056.84;5058646;28;45474;-57
2022/01/01 00:38:24;;;;;;;;;13.00;10.00;;;;;20.72;46.86;102043.75;5058795;28;45383;-58
2022/01/01 00:40:50;;;;;;;;;14.50;14.00;;;;;20.72;46.55;102051.66;5058740;28;45304;-57
2022/01/01 00:43:15;;;;;;;;;14.75;13.00;;;;;20.72;46.59;102056.94;5058416;28;47081;-57
2022/01/01 00:45:41;;;;;;;;;13.25;13.00;;;;;20.69;46.66;102056.13;5058557;28;45440;-59
2022/01/01 00:48:06;;;;;;;;;15.00;11.00;;;;;20.69;47.00;102053.47;5058935;28;45442;-57
2022/01/01 00:50:32;;;;;;;;;13.50;13.50;;;;;20.68;46.60;102049.13;5059079;28;45608;-58
2022/01/01 00:52:58;;;;;;;;;16.00;13.75;;;;;20.67;46.78;102055.31;5058316;28;46544;-58
2022/01/01 00:55:24;;;;;;;;;14.75;14.75;;;;;20.67;46.98;102060.56;5058358;28;45498;-57
2022/01/01 00:57:49;;;;;;;;;17.00;14.25;;;;;20.68;46.59;102056.19;5058490;28;45343;-58
2022/01/01 01:00:15;;;;;;;;;14.00;13.25;;;;;20.69;46.65;102057.91;5058667;28;45409;-57
2022/01/01 01:02:40;;;;;;;;;13.25;13.00;;;;;20.68;46.81;102056.19;5058188;28;46210;-59
2022/01/01 01:05:06;;;;;;;;;14.00;14.00;;;;;20.67;46.47;102052.66;5058498;28;45444;-58
2022/01/01 01:07:31;;;;;;;;;16.50;14.50;;;;;20.67;46.61;102043.94;5058214;28;45411;-58
2022/01/01 01:09:57;;;;;;;;;14.25;13.75;;;;;20.66;46.75;102045.72;5058401;28;45449;-59
2022/01/01 01:12:26;;;;;;;;;18.00;15.00;;;;;20.64;47.15;102039.63;5057847;28;45492;-58
2022/01/01 01:14:52;;;;;;;;;12.00;9.00;;;;;20.63;46.69;102040.56;5058138;28;45256;-59
2022/01/01 01:17:18;;;;;;;;;15.25;13.75;;;;;20.61;46.64;102042.38;5058214;28;45364;-58
2022/01/01 01:19:44;;;;;;;;;14.25;14.25;;;;;20.60;46.85;102043.28;5058228;28;45462;-62
2022/01/01 01:22:09;;;;;;;;;14.50;13.25;;;;;20.61;47.09;102047.63;5057905;28;45344;-57
2022/01/01 01:24:35;;;;;;;;;16.00;13.75;;;;;20.60;46.98;102039.81;5057989;28;45480;-59
2022/01/01 01:27:03;;;;;;;;;16.50;13.75;;;;;20.59;46.79;102044.19;5058042;28;45346;-58
2022/01/01 01:29:34;;;;;;;;;15.00;14.75;;;;;20.57;46.61;102040.75;5058229;28;45318;-57
2022/01/01 01:32:00;;;;;;;;;14.50;13.25;;;;;20.57;47.08;102043.38;5057608;28;46374;-59
2022/01/01 01:34:25;;;;;;;;;18.00;15.50;;;;;20.52;46.58;102032.19;5057804;28;45340;-57
2022/01/01 01:36:50;;;;;;;;;18.25;15.50;;;;;20.54;46.77;102033.00;5057804;28;45431;-58
2022/01/01 01:39:16;;;;;;;;;14.50;13.75;;;;;20.53;46.76;102033.91;5039719;28;45584;-57
2022/01/01 01:41:43;;;;;;;;;15.75;13.75;;;;;20.52;47.02;102035.66;5057446;28;45372;-58
2022/01/01 01:44:23;;;;;;;;;18.00;15.25;;;;;20.52;46.86;102040.06;5057846;28;45909;-59
2022/01/01 01:46:48;;;;;;;;;13.50;13.50;;;;;20.51;46.75;102043.63;5057667;28;45234;-59
2022/01/01 01:49:13;;;;;;;;;16.75;15.75;;;;;20.50;46.85;102048.03;5057908;28;45676;-58
2022/01/01 01:51:39;;;;;;;;;19.25;17.25;;;;;20.48;46.89;102041.97;5057539;28;46153;-58
2022/01/01 01:54:05;;;;;;;;;17.75;16.25;;;;;20.49;46.51;102045.44;5057432;28;45378;-57
2022/01/01 01:56:31;;;;;;;;;15.75;14.25;;;;;20.50;46.77;102047.16;5057551;28;45519;-59
2022/01/01 01:58:56;;;;;;;;;15.00;15.00;;;;;20.48;46.49;102044.59;5057757;28;45349;-57
2022/01/01 02:01:23;;;;;;;;;17.50;15.25;;;;;20.46;47.10;102035.91;5057213;28;46106;-58
2022/01/01 02:03:49;;;;;;;;;15.50;14.75;;;;;20.47;46.59;102047.28;5057361;28;45253;-56
2022/01/01 02:06:16;;;;;;;;;15.25;15.00;;;;;20.46;46.86;102038.53;5057374;28;45409;-59
2022/01/01 02:08:43;;;;;;;;;13.50;13.50;;;;;20.44;46.51;102045.63;5039160;28;45549;-59
2022/01/01 02:11:08;;;;;;;;;16.50;15.75;;;;;20.45;46.94;102043.84;5057467;28;45408;-58
2022/01/01 02:13:49;;;;;;;;;16.25;16.25;;;;;20.42;46.84;102033.44;5057100;28;45330;-59
2022/01/01 02:18:52;;;;;;;;;17.75;16.50;;;;;20.43;47.01;102045.69;5057316;28;45332;-57
2022/01/01 02:21:20;;;;;;;;;18.25;18.25;;;;;20.40;46.94;102038.72;5057074;28;45346;-58
2022/01/01 02:23:46;;;;;;;;;14.75;9.75;;;;;20.40;46.82;102041.34;5057072;28;45356;-57
2022/01/01 02:26:15;;;;;;;;;14.50;14.25;;;;;20.40;46.89;102041.34;5039221;28;45414;-58
2022/01/01 02:28:46;;;;;;;;;16.00;16.00;;;;;20.37;47.07;102025.69;5057508;28;45683;-58
2022/01/01 02:31:12;;;;;;;;;15.50;13.00;;;;;20.37;46.85;102029.16;5057134;28;46253;-58
2022/01/01 02:33:38;;;;;;;;;17.00;14.00;;;;;20.38;46.78;102033.53;5056596;28;45928;-57
2022/01/01 02:36:05;;;;;;;;;11.50;9.75;;;;;20.36;46.91;102030.09;5057163;28;45315;-59
2022/01/01 02:38:34;;;;;;;;;13.50;13.25;;;;;20.36;46.88;102026.59;5057126;28;45598;-58
2022/01/01 02:40:59;;;;;;;;;18.75;15.50;;;;;20.33;47.15;102014.41;5056561;28;45834;-58
2022/01/01 02:43:25;;;;;;;;;17.25;13.75;;;;;20.36;47.03;102014.28;5056665;28;45374;-57
2022/01/01 02:45:51;;;;;;;;;17.00;15.75;;;;;20.35;46.50;102017.81;5056740;28;45903;-58
2022/01/01 02:48:17;;;;;;;;;14.00;13.25;;;;;20.33;46.46;102011.78;5056960;28;45304;-59
2022/01/01 02:50:42;;;;;;;;;17.25;14.75;;;;;20.33;47.04;102011.78;5056913;28;46189;-56
2022/01/01 02:53:14;;;;;;;;;15.25;13.50;;;;;20.32;46.76;102017.97;5056483;28;45266;-56
2022/01/01 02:55:41;;;;;;;;;16.25;14.00;;;;;20.32;47.23;102017.97;5057004;28;45478;-58
2022/01/01 02:58:08;;;;;;;;;19.00;15.25;;;;;20.33;46.58;102021.44;5056738;28;45386;-56
2022/01/01 03:00:33;;;;;;;;;15.75;14.25;;;;;20.31;47.09;102021.50;5056498;28;45353;-58
2022/01/01 03:02:59;;;;;;;;;17.75;15.75;;;;;20.30;46.65;102017.16;5056714;28;45422;-59
2022/01/01 03:05:24;;;;;;;;;14.25;12.75;;;;;20.28;46.84;102018.13;5056605;28;45162;-60
2022/01/01 03:07:50;;;;;;;;;16.50;15.25;;;;;20.28;47.05;102021.59;5056392;28;45352;-59
2022/01/01 03:10:15;;;;;;;;;17.00;16.00;;;;;20.28;46.97;102021.59;5038392;28;45297;-59
2022/01/01 03:12:41;;;;;;;;;12.50;12.50;;;;;20.28;46.77;102026.88;5038685;28;45281;-58
2022/01/01 03:15:07;;;;;;;;;17.00;16.25;;;;;20.28;46.73;102026.88;5056493;28;45194;-58
2022/01/01 03:17:32;;;;;;;;;19.75;16.00;;;;;20.27;46.57;102017.25;5056620;28;45277;-58
2022/01/01 03:19:57;;;;;;;;;13.25;13.25;;;;;20.27;46.63;102024.31;5056130;28;46553;-58
2022/01/01 03:22:22;;;;;;;;;17.00;15.75;;;;;20.26;46.78;102022.59;5056197;28;45265;-56
2022/01/01 03:24:48;;;;;;;;;17.75;15.75;;;;;20.25;46.65;102032.25;5056315;28;45216;-57
2022/01/01 03:27:13;;;;;;;;;17.00;14.25;;;;;20.23;47.00;102028.78;5056649;28;45274;-57
2022/01/01 03:29:39;;;;;;;;;15.00;13.50;;;;;20.24;46.93;102027.88;5054859;28;46373;-58
2022/01/01 03:32:05;;;;;;;;;16.25;14.75;;;;;20.22;46.50;102027.94;5056024;28;45480;-58
2022/01/01 03:34:30;;;;;;;;;14.00;14.00;;;;;20.22;46.74;102032.38;5056359;28;45399;-57
2022/01/01 03:36:55;;;;;;;;;16.50;14.50;;;;;20.23;46.66;102028.78;5056520;28;45487;-58
2022/01/01 03:39:24;;;;;;;;;16.50;14.75;;;;;20.21;46.99;102028.84;5037498;28;47026;-57
2022/01/01 03:41:50;;;;;;;;;15.50;13.25;;;;;20.22;46.81;102024.47;5056072;28;45335;-58
2022/01/01 03:44:16;;;;;;;;;16.25;14.25;;;;;20.21;46.86;102020.97;5057358;28;45371;-58
2022/01/01 03:46:41;;;;;;;;;16.00;13.25;;;;;20.19;46.64;102003.50;5060222;28;45610;-58
2022/01/01 03:49:06;;;;;;;;;14.25;13.00;;;;;20.20;46.54;102015.75;5041406;28;45272;-57
2022/01/01 03:51:32;;;;;;;;;14.25;14.25;;;;;20.20;46.83;102010.50;5059548;28;45327;-57
2022/01/01 03:53:57;;;;;;;;;15.00;13.50;;;;;20.18;46.50;102015.78;5059498;28;45219;-57
2022/01/01 03:56:22;;;;;;;;;13.00;13.00;;;;;20.18;46.90;102009.69;5059583;28;45313;-57
2022/01/01 03:58:48;;;;;;;;;13.50;13.50;;;;;20.18;47.04;102015.78;5040874;28;49871;-57
2022/01/01 04:01:13;;;;;;;;;14.00;14.00;;;;;20.18;46.53;102021.06;5059514;28;45943;-59
2022/01/01 04:03:38;;;;;;;;;14.00;14.00;;;;;20.17;47.18;102013.22;5059515;28;45347;-57
2022/01/01 04:06:04;;;;;;;;;14.00;13.25;;;;;20.17;46.41;102021.13;5059474;28;45559;-56
2022/01/01 04:08:30;;;;;;;;;13.75;13.00;;;;;20.17;46.68;102018.50;5040740;28;47107;-58
2022/01/01 04:10:56;;;;;;;;;16.75;15.50;;;;;20.15;46.85;102013.28;5041022;28;45773;-57
2022/01/01 04:13:21;;;;;;;;;12.50;12.50;;;;;20.16;46.67;102009.75;5059008;28;45421;-58
2022/01/01 04:15:47;;;;;;;;;16.25;14.25;;;;;20.14;46.96;102005.44;5059582;28;45273;-58
2022/01/01 04:18:18;;;;;;;;;16.00;14.25;;;;;20.13;46.77;102003.72;5059100;28;45395;-58
2022/01/01 04:20:45;;;;;;;;;11.00;11.00;;;;;20.11;47.11;102009.03;5059126;28;45782;-57
2022/01/01 04:23:10;;;;;;;;;15.00;13.50;;;;;20.13;47.04;102012.47;5059026;28;45272;-56
2022/01/01 04:25:37;;;;;;;;;14.75;14.00;;;;;20.13;46.77;102017.75;5040908;28;45616;-57
2022/01/01 04:28:03;;;;;;;;;15.50;13.50;;;;;20.12;47.03;102018.66;5058698;28;47354;-53
2022/01/01 04:30:29;;;;;;;;;14.50;14.25;;;;;20.13;46.77;102006.34;5058758;28;45540;-54
2022/01/01 04:32:57;;;;;;;;;18.50;13.25;;;;;20.11;46.60;101997.66;5058654;28;45339;-53
2022/01/01 04:35:23;;;;;;;;;15.25;15.25;;;;;20.10;46.61;101998.56;5058988;28;45516;-54
2022/01/01 04:37:49;;;;;;;;;14.50;13.50;;;;;20.10;46.54;101999.41;5058446;28;45470;-52
2022/01/01 04:40:15;;;;;;;;;14.00;12.50;;;;;20.08;46.92;101996.84;5058856;28;45319;-55
2022/01/01 04:42:41;;;;;;;;;13.75;13.75;;;;;20.08;46.60;101999.47;5058797;28;45499;-54
2022/01/01 04:45:07;;;;;;;;;15.75;14.25;;;;;20.07;46.87;102003.03;5058872;28;45428;-57
2022/01/01 04:47:32;;;;;;;;;14.25;14.25;;;;;20.07;46.97;102007.41;5058427;28;47711;-55
2022/01/01 04:49:58;;;;;;;;;14.00;14.00;;;;;20.08;46.55;102003.88;5058364;28;46248;-54
2022/01/01 04:52:23;;;;;;;;;18.00;16.00;;;;;20.07;46.58;102002.16;5058453;28;45494;-55
2022/01/01 04:54:48;;;;;;;;;14.00;11.75;;;;;20.06;46.87;102001.31;5058503;28;45628;-52
2022/01/01 04:57:14;;;;;;;;;11.25;11.25;;;;;20.03;46.58;101990.88;5058395;28;45460;-55
2022/01/01 04:59:41;;;;;;;;;15.25;14.25;;;;;20.05;46.64;101994.31;5058310;28;45336;-52
2022/01/01 05:02:06;;;;;;;;;13.50;12.50;;;;;20.06;46.47;101992.56;5058313;28;45367;-53
2022/01/01 05:04:32;;;;;;;;;15.75;13.50;;;;;20.06;46.49;102001.31;5058415;28;45452;-55
2022/01/01 05:06:57;;;;;;;;;14.75;14.75;;;;;20.05;46.85;102010.09;5058179;28;46386;-54
2022/01/01 05:09:23;;;;;;;;;14.75;13.00;;;;;20.06;46.72;102005.72;5058214;28;45349;-50
2022/01/01 05:11:49;;;;;;;;;17.75;16.00;;;;;20.04;46.85;102010.19;5058578;28;45803;-55
2022/01/01 05:14:15;;;;;;;;;17.50;14.50;;;;;19.99;47.09;102010.34;5058510;28;45625;-53
2022/01/01 05:16:41;;;;;;;;;15.50;14.25;;;;;20.01;46.92;102008.47;5058031;28;45416;-52
2022/01/01 05:19:07;;;;;;;;;12.00;11.00;;;;;20.04;46.58;102013.66;5058041;28;45334;-49
2022/01/01 05:21:35;;;;;;;;;17.00;13.50;;;;;20.02;47.07;102018.09;5058019;28;45362;-51
2022/01/01 05:24:03;;;;;;;;;15.50;15.50;;;;;20.03;46.62;102017.19;5058328;28;45503;-51
2022/01/01 05:26:28;;;;;;;;;8.75;5.50;;;;;20.03;46.32;102011.09;5057877;28;46878;-52
2022/01/01 05:28:53;;;;;;;;;14.25;14.25;;;;;20.00;46.67;102012.06;5039731;28;46039;-51
2022/01/01 05:31:19;;;;;;;;;15.75;15.75;;;;;20.02;46.46;102012.00;5058335;28;45327;-51
2022/01/01 05:33:49;;;;;;;;;12.00;12.00;;;;;20.00;46.70;102019.94;5058064;28;45312;-50
2022/01/01 05:36:15;;;;;;;;;13.00;12.00;;;;;20.00;46.64;102011.19;5057677;28;45857;-55
2022/01/01 05:38:41;;;;;;;;;16.50;14.25;;;;;20.00;46.76;102000.66;5057619;28;45482;-46
2022/01/01 05:41:07;;;;;;;;;17.50;15.00;;;;;19.98;46.71;102000.72;5057859;28;45676;-52
2022/01/01 05:43:32;;;;;;;;;14.25;13.25;;;;;19.98;46.66;102002.47;5057896;28;45434;-54
2022/01/01 05:45:58;;;;;;;;;16.50;14.75;;;;;19.98;46.66;101997.22;5057534;28;45998;-53
2022/01/01 05:48:23;;;;;;;;;14.75;14.75;;;;;19.97;46.77;101988.47;5057692;28;45199;-54
2022/01/01 05:50:48;;;;;;;;;14.50;14.25;;;;;19.95;46.88;101990.28;5057967;28;45342;-48
2022/01/01 05:53:14;;;;;;;;;11.50;11.25;;;;;19.97;46.67;101991.09;5057594;28;45221;-49
2022/01/01 05:55:40;;;;;;;;;15.75;13.50;;;;;19.96;47.00;102005.16;5057568;28;45490;-55
2022/01/01 05:58:05;;;;;;;;;16.50;14.00;;;;;19.95;46.79;101992.06;5057473;28;45304;-52
2022/01/01 06:00:31;;;;;;;;;16.75;13.50;;;;;19.95;46.50;101989.44;5057584;28;45440;-50
2022/01/01 06:03:00;;;;;;;;;16.75;13.50;;;;;19.95;47.04;101990.28;5057668;28;45441;-51
2022/01/01 06:05:27;;;;;;;;;14.25;12.75;;;;;19.95;46.94;101992.06;5039129;28;46751;-53
2022/01/01 06:07:57;;;;;;;;;12.25;11.75;;;;;19.93;46.98;101985.09;5056525;28;45333;-53
2022/01/01 06:10:24;;;;;;;;;15.75;14.50;;;;;19.93;46.79;101992.09;5057711;28;45386;-51
2022/01/01 06:12:49;;;;;;;;;14.50;14.50;;;;;19.92;46.69;101990.38;5039902;28;45542;-54
2022/01/01 06:15:14;;;;;;;;;13.75;13.75;;;;;19.92;46.75;101985.13;5057027;28;46958;-48
2022/01/01 06:17:40;;;;;;;;;12.50;12.50;;;;;19.92;46.44;101986.00;5057047;28;45375;-46
2022/01/01 06:20:06;;;;;;;;;18.75;14.00;;;;;19.92;46.82;101985.13;5057296;28;45391;-49
2022/01/01 06:22:31;;;;;;;;;13.00;13.00;;;;;19.92;46.78;101998.28;5057285;28;45259;-50
2022/01/01 06:24:57;;;;;;;;;15.00;13.50;;;;;19.92;46.57;101993.03;5038996;28;45352;-48
2022/01/01 06:27:22;;;;;;;;;13.25;11.75;;;;;19.91;46.76;101986.03;5057374;28;45276;-49
2022/01/01 06:29:48;;;;;;;;;15.25;15.25;;;;;19.90;46.63;101989.56;5057227;28;45473;-51
2022/01/01 06:32:14;;;;;;;;;13.50;13.25;;;;;19.89;46.83;101991.34;5057319;28;45484;-48
2022/01/01 06:34:39;;;;;;;;;13.25;12.25;;;;;19.89;46.77;101987.88;5056818;28;46069;-45
2022/01/01 06:37:05;;;;;;;;;15.00;15.00;;;;;19.87;46.53;101989.69;5056699;28;45414;-50
2022/01/01 06:39:30;;;;;;;;;12.75;12.75;;;;;19.86;46.75;101978.31;5056924;28;45366;-50
2022/01/01 06:41:55;;;;;;;;;17.00;16.25;;;;;19.90;46.53;101979.06;5056957;28;45463;-54
2022/01/01 06:44:21;;;;;;;;;14.75;13.25;;;;;19.91;46.82;101984.28;5056947;28;45601;-49
2022/01/01 06:46:46;;;;;;;;;14.00;14.00;;;;;19.92;46.62;101987.75;5056766;28;45419;-52
2022/01/01 06:49:11;;;;;;;;;14.25;14.25;;;;;19.94;46.24;101983.31;5056670;28;45296;-52
2022/01/01 06:51:37;;;;;;;;;12.75;11.25;;;;;19.94;46.38;101980.69;5056987;28;45487;-49
2022/01/01 06:54:03;;;;;;;;;15.25;13.25;;;;;19.95;46.63;101982.41;5056419;28;45443;-49
2022/01/01 06:56:29;;;;;;;;;13.00;12.25;;;;;19.96;46.60;101981.50;5056564;28;45456;-50
2022/01/01 06:58:54;;;;;;;;;13.75;12.50;;;;;19.96;46.50;101980.59;5056958;28;45235;-50
2022/01/01 07:01:19;;;;;;;;;13.50;13.00;;;;;19.99;46.34;101983.16;5056768;28;45304;-50
2022/01/01 07:03:45;;;;;;;;;13.75;13.25;;;;;19.98;46.27;101984.94;5056323;28;46896;-51
2022/01/01 07:06:10;;;;;;;;;15.00;14.25;;;;;19.98;46.45;101976.16;5056458;28;45206;-52
2022/01/01 07:08:35;;;;;;;;;18.25;14.25;;;;;20.00;46.78;101980.47;5056401;28;45173;-49
2022/01/01 07:11:01;;;;;;;;;16.75;15.00;;;;;20.00;46.57;101975.22;5056688;28;45471;-50
2022/01/01 07:13:26;;;;;;;;;12.25;12.25;;;;;20.01;46.68;101978.69;5056285;28;46235;-52
2022/01/01 07:15:52;;;;;;;;;13.50;12.00;;;;;20.01;46.59;101987.44;5056466;28;45383;-49
2022/01/01 07:18:17;;;;;;;;;13.50;11.50;;;;;20.01;46.63;101982.16;5057175;28;45190;-52
2022/01/01 07:20:43;;;;;;;;;14.25;11.00;;;;;20.02;46.85;101981.25;5060017;28;45556;-50
2022/01/01 07:23:10;;;;;;;;;13.75;12.50;;;;;20.04;46.83;101981.22;5059763;28;46177;-54
2022/01/01 07:25:35;;;;;;;;;14.00;11.50;;;;;20.03;46.19;101977.72;5059690;28;45368;-50
2022/01/01 07:28:01;;;;;;;;;13.00;13.00;;;;;20.06;46.22;101979.41;5058532;28;45412;-47
2022/01/01 07:30:26;;;;;;;;;14.75;11.00;;;;;20.06;46.50;101980.25;5060298;28;45302;-46
2022/01/01 07:32:52;;;;;;;;;17.00;13.25;;;;;20.05;46.58;101981.16;5059763;28;46256;-50
2022/01/01 07:35:19;;;;;;;;;12.50;12.50;;;;;20.07;46.76;101986.34;5059580;28;45426;-50
2022/01/01 07:37:44;;;;;;;;;10.00;10.00;;;;;20.08;46.79;101986.31;5059816;28;45404;-52
2022/01/01 07:40:12;;;;;;;;;9.00;9.00;;;;;20.10;46.48;101993.31;5060032;28;45323;-48
2022/01/01 07:42:39;;;;;;;;;14.25;11.75;;;;;20.12;46.87;101999.38;5059493;28;46492;-51
2022/01/01 07:45:05;;;;;;;;;13.50;10.00;;;;;20.12;46.22;101981.81;5059568;28;45752;-47
2022/01/01 07:47:31;;;;;;;;;14.25;13.50;;;;;20.12;46.56;101979.19;5059595;28;45368;-46
2022/01/01 07:49:56;;;;;;;;;10.25;9.25;;;;;20.13;46.24;101977.38;5059890;28;45268;-48
2022/01/01 07:52:22;;;;;;;;;10.25;10.25;;;;;20.12;46.19;101973.06;5059260;28;45405;-50
2022/01/01 07:54:47;;;;;;;;;12.75;11.25;;;;;20.14;46.11;101974.72;5059426;28;45323;-51
2022/01/01 07:57:12;;;;;;;;;12.00;12.00;;;;;20.14;46.28;101981.75;5041355;28;45375;-48
2022/01/01 07:59:38;;;;;;;;;13.25;11.25;;;;;20.16;46.25;101985.19;5059659;28;45409;-45
2022/01/01 08:02:03;;;;;;;;;11.50;10.50;;;;;20.17;46.21;101986.91;5059326;28;46461;-48
2022/01/01 08:04:28;;;;;;;;;10.75;10.00;;;;;20.16;46.45;101993.97;5059259;28;45455;-49
2022/01/01 08:06:54;;;;;;;;;11.00;11.00;;;;;20.16;45.97;101991.31;5059304;28;45412;-45
2022/01/01 08:09:19;;;;;;;;;10.00;10.00;;;;;20.14;45.84;101992.28;5059279;28;45271;-50
2022/01/01 08:11:44;;;;;;;;;13.75;13.25;;;;;20.06;45.85;101990.78;5059018;28;46200;-46
2022/01/01 08:14:10;;;;;;;;;16.00;12.25;;;;;19.98;45.95;102002.47;5059033;28;45386;-47
2022/01/01 08:16:58;;;;;;;;;13.25;13.25;;;;;19.86;46.00;101993.25;5059210;28;45369;-45
2022/01/01 08:19:23;;;;;;;;;16.00;14.50;;;;;19.80;46.30;101989.00;5059443;28;45340;-49
2022/01/01 08:21:49;;;;;;;;;14.50;13.75;;;;;19.72;46.00;101991.91;5040796;28;47614;-45
2022/01/01 08:24:14;;;;;;;;;13.25;12.25;;;;;19.66;46.07;101975.47;5059012;28;45363;-50
2022/01/01 08:26:39;;;;;;;;;13.25;12.25;;;;;19.58;46.10;101966.06;5059112;28;45466;-49
2022/01/01 08:29:05;;;;;;;;;12.50;11.25;;;;;19.50;46.07;101964.59;5059234;28;45403;-49
2022/01/01 08:31:30;;;;;;;;;13.75;13.50;;;;;19.42;46.08;101963.09;5057847;28;45549;-56
2022/01/01 08:33:55;;;;;;;;;10.00;9.75;;;;;19.37;46.17;101972.88;5058980;28;45410;-57
2022/01/01 08:36:21;;;;;;;;;13.25;11.00;;;;;19.34;46.36;101975.63;5058862;28;45292;-55
2022/01/01 08:38:46;;;;;;;;;11.00;11.00;;;;;19.29;46.42;101972.28;5058936;28;45512;-54
2022/01/01 08:41:11;;;;;;;;;14.00;12.75;;;;;19.25;46.16;101975.88;5058582;28;45588;-56
2022/01/01 08:43:38;;;;;;;;;10.00;10.00;;;;;19.20;46.65;101967.31;5058493;28;46710;-56
2022/01/01 08:46:03;;;;;;;;;12.75;11.25;;;;;19.16;46.19;101975.28;5058662;28;45335;-54
2022/01/01 08:48:28;;;;;;;;;10.25;10.25;;;;;19.12;46.32;101971.06;5041266;28;45588;-57
2022/01/01 08:50:54;;;;;;;;;10.50;10.25;;;;;19.09;46.24;101973.78;5058402;28;45472;-55
2022/01/01 08:53:19;;;;;;;;;13.25;13.25;;;;;19.07;46.19;101967.69;5058549;28;45730;-50
2022/01/01 08:55:45;;;;;;;;;12.50;10.50;;;;;19.04;46.29;101973.03;5058716;28;45377;-49
2022/01/01 08:58:10;;;;;;;;;14.00;11.75;;;;;19.02;46.58;101969.59;5058606;28;45444;-48
2022/01/01 09:00:36;;;;;;;;;9.75;8.00;;;;;19.01;46.33;101957.38;5058159;28;46403;-48
2022/01/01 09:03:01;;;;;;;;;13.75;10.00;;;;;18.98;46.58;101960.94;5058283;28;45400;-50
2022/01/01 09:05:26;;;;;;;;;10.75;10.75;;;;;18.97;46.70;101966.25;5058682;28;45369;-53
2022/01/01 09:07:52;;;;;;;;;10.00;10.00;;;;;18.96;46.35;101975.03;5058421;28;45545;-50
2022/01/01 09:10:19;;;;;;;;;10.50;8.75;;;;;18.93;46.64;101980.34;5058124;28;46253;-52
2022/01/01 09:12:44;;;;;;;;;10.00;10.00;;;;;18.90;46.63;101975.22;5058079;28;46213;-51
2022/01/01 09:15:10;;;;;;;;;11.75;11.00;;;;;18.90;46.61;101962.06;5058194;28;45602;-52
2022/01/01 09:17:35;;;;;;;;;11.75;10.50;;;;;18.89;46.72;101947.22;5058358;28;45587;-55
2022/01/01 09:20:00;;;;;;;;;15.50;12.75;;;;;18.87;46.51;101949.88;5058185;28;46596;-56
2022/01/01 09:22:26;;;;;;;;;13.00;10.50;;;;;18.86;46.54;101961.28;5057933;28;45368;-55
2022/01/01 09:24:51;;;;;;;;;16.50;10.50;;;;;18.83;46.75;101949.13;5058242;28;45474;-52
2022/01/01 09:27:17;;;;;;;;;12.75;11.25;;;;;18.81;46.45;101942.19;5058130;28;45274;-49
2022/01/01 09:29:42;;;;;;;;;10.25;10.25;;;;;18.78;46.68;101940.53;5057675;28;46058;-49
2022/01/01 09:32:08;;;;;;;;;12.00;11.25;;;;;18.78;46.52;101937.03;5039629;28;45396;-51
2022/01/01 09:34:33;;;;;;;;;9.50;8.75;;;;;18.85;46.68;101935.94;5057884;28;45336;-48
2022/01/01 09:36:58;;;;;;;;;12.25;10.00;;;;;18.91;46.69;101927.00;5058240;28;45669;-47
2022/01/01 09:39:25;;;;;;;;;10.50;10.00;;;;;18.97;46.27;101924.22;5057536;28;45987;-49
2022/01/01 09:41:50;;;;;;;;;8.25;8.25;;;;;19.01;46.63;101915.34;5057624;28;45940;-50
2022/01/01 09:44:17;;;;;;;;;8.50;7.75;;;;;19.08;46.33;101926.50;5057774;28;45364;-51
2022/01/01 09:46:46;;;;;;;;;10.50;10.25;;;;;19.11;46.58;101926.41;5058167;28;45868;-53
2022/01/01 09:49:16;;;;;;;;;9.75;9.75;;;;;19.16;46.14;101920.09;5057528;28;47009;-56
2022/01/01 09:51:42;;;;;;;;;11.25;10.00;;;;;19.18;46.27;101922.69;5057537;28;45396;-57
2022/01/01 09:54:08;;;;;;;;;8.75;8.50;;;;;19.22;46.34;101926.06;5057602;28;45274;-56
2022/01/01 09:56:35;;;;;;;;;5.00;5.00;;;;;19.24;45.97;101922.47;5057679;28;45364;-51
2022/01/01 09:59:00;;;;;;;;;5.25;2.75;;;;;19.26;45.83;101925.03;5057742;28;45574;-52
2022/01/01 10:01:26;;;;;;;;;10.25;9.00;;;;;19.28;46.01;101921.47;5057382;28;45450;-54
2022/01/01 10:03:52;;;;;;;;;10.25;10.25;;;;;19.30;45.76;101924.91;5039406;28;45794;-55
2022/01/01 10:06:20;;;;;;;;;9.75;8.25;;;;;19.32;46.01;101919.59;5057582;28;45434;-56
2022/01/01 10:08:49;;;;;;;;;8.00;8.00;;;;;19.35;46.28;101918.63;5057084;28;45414;-53
2022/01/01 10:11:18;;;;;;;;;9.50;8.25;;;;;19.35;45.54;101914.22;5057366;28;45754;-51
2022/01/01 10:13:45;;;;;;;;;9.50;8.75;;;;;19.36;46.02;101926.47;5057251;28;45446;-51
2022/01/01 10:16:11;;;;;;;;;8.75;8.75;;;;;19.39;45.96;101929.00;5039387;28;45544;-53
2022/01/01 10:18:42;;;;;;;;;9.50;8.00;;;;;19.42;45.73;101926.28;5057109;28;45430;-56
2022/01/01 10:21:16;;;;;;;;;7.75;7.75;;;;;19.43;45.69;101927.13;5039269;28;45749;-53
2022/01/01 10:23:46;;;;;;;;;7.00;7.00;;;;;19.44;45.59;101923.59;5039322;28;45509;-53
2022/01/01 10:29:07;;;;;;;;;8.75;8.75;;;;;19.45;45.92;101918.28;5056893;28;45726;-47
2022/01/01 10:31:34;;;;;;;;;10.00;8.75;;;;;19.43;45.17;101913.97;5057380;28;45910;-56
2022/01/01 10:34:00;;;;;;;;;7.50;7.50;;;;;19.46;45.80;101920.00;5057262;28;45445;-52
2022/01/01 10:36:30;;;;;;;;;9.50;7.50;;;;;19.47;45.96;101928.75;5039145;28;45410;-52
2022/01/01 10:39:10;;;;;;;;;6.50;6.50;;;;;19.49;45.62;101931.31;5038859;28;47030;-52
2022/01/01 10:41:54;;;;;;;;;8.25;6.75;;;;;19.49;45.59;101919.03;5057226;28;45803;-50
2022/01/01 10:44:28;;;;;;;;;15.00;8.50;;;;;19.50;46.06;101920.78;5057061;28;45249;-53
2022/01/01 10:46:54;;;;;;;;;6.75;6.75;;;;;19.51;45.85;101924.25;5039146;28;45462;-48
2022/01/01 10:49:35;;;;;;;;;9.50;8.00;;;;;19.49;45.35;101918.16;5056529;28;45632;-47
2022/01/01 10:52:29;;;;;;;;;6.50;6.50;;;;;19.50;45.93;101927.78;5056560;28;45796;-49
2022/01/01 10:55:06;;;;;;;;;8.50;7.25;;;;;19.51;45.41;101927.75;5056811;28;45287;-57
2022/01/01 10:57:33;;;;;;;;;9.00;8.75;;;;;19.51;45.37;101918.97;5039237;28;45408;-51
2022/01/01 11:00:18;;;;;;;;;11.75;7.25;;;;;19.51;45.60;101926.88;5056503;28;47189;-51
2022/01/01 11:02:49;;;;;;;;;7.00;7.00;;;;;19.50;45.88;101925.16;5056401;28;45715;-53
2022/01/01 11:05:15;;;;;;;;;7.75;6.50;;;;;19.51;45.75;101921.63;5056628;28;45273;-49
2022/01/01 11:07:50;;;;;;;;;6.75;6.50;;;;;19.50;45.31;101923.41;5056613;28;45277;-55
2022/01/01 11:10:18;;;;;;;;;9.00;8.00;;;;;19.51;45.67;101918.97;5038091;28;47045;-50
2022/01/01 11:12:43;;;;;;;;;7.75;7.75;;;;;19.52;45.95;101905.78;5056253;28;45855;-47
2022/01/01 11:15:10;;;;;;;;;7.25;7.25;;;;;19.54;45.79;101916.25;5056579;28;45308;-56